sensor_id;sensor_type;location;lat;lon;timestamp;temperature;humidity
10245;DHT22;5167;52.164;10.530;2023-02-23T00:01:19;10.00;66.70
10245;DHT22;5167;52.164;10.530;2023-02-23T00:03:47;10.00;67.50
10245;DHT22;5167;52.164;10.530;2023-02-23T00:06:14;10.00;67.40
10245;DHT22;5167;52.164;10.530;2023-02-23T00:08:40;10.00;68.00
10245;DHT22;5167;52.164;10.530;2023-02-23T00:11:09;10.00;67.70
10245;DHT22;5167;52.164;10.530;2023-02-23T00:13:39;10.00;68.00
10245;DHT22;5167;52.164;10.530;2023-02-23T00:16:16;9.90;68.60
10245;DHT22;5167;52.164;10.530;2023-02-23T00:18:43;10.00;69.30
10245;DHT22;5167;52.164;10.530;2023-02-23T00:21:20;9.90;69.70
10245;DHT22;5167;52.164;10.530;2023-02-23T00:23:52;9.90;70.60
10245;DHT22;5167;52.164;10.530;2023-02-23T00:26:19;9.90;71.20
10245;DHT22;5167;52.164;10.530;2023-02-23T00:28:47;9.80;70.70
10245;DHT22;5167;52.164;10.530;2023-02-23T00:31:12;9.80;70.90
10245;DHT22;5167;52.164;10.530;2023-02-23T00:33:39;9.80;71.00
10245;DHT22;5167;52.164;10.530;2023-02-23T00:36:11;9.80;71.50
10245;DHT22;5167;52.164;10.530;2023-02-23T00:38:38;9.80;72.00
10245;DHT22;5167;52.164;10.530;2023-02-23T00:41:10;9.90;71.90
10245;DHT22;5167;52.164;10.530;2023-02-23T00:43:37;9.80;72.20
10245;DHT22;5167;52.164;10.530;2023-02-23T00:46:04;9.90;72.70
10245;DHT22;5167;52.164;10.530;2023-02-23T00:48:34;9.90;72.70
10245;DHT22;5167;52.164;10.530;2023-02-23T00:51:04;9.80;72.40
10245;DHT22;5167;52.164;10.530;2023-02-23T00:53:30;9.90;72.20
10245;DHT22;5167;52.164;10.530;2023-02-23T00:55:56;9.90;72.30
10245;DHT22;5167;52.164;10.530;2023-02-23T00:58:25;9.80;72.60
10245;DHT22;5167;52.164;10.530;2023-02-23T01:00:51;9.80;71.80
10245;DHT22;5167;52.164;10.530;2023-02-23T01:03:17;10.00;72.10
10245;DHT22;5167;52.164;10.530;2023-02-23T01:05:43;9.80;71.80
10245;DHT22;5167;52.164;10.530;2023-02-23T01:08:09;9.70;71.60
10245;DHT22;5167;52.164;10.530;2023-02-23T01:10:42;9.80;72.00
10245;DHT22;5167;52.164;10.530;2023-02-23T01:13:09;9.80;71.80
10245;DHT22;5167;52.164;10.530;2023-02-23T01:15:40;9.70;71.60
10245;DHT22;5167;52.164;10.530;2023-02-23T01:18:07;9.80;71.60
10245;DHT22;5167;52.164;10.530;2023-02-23T01:20:34;9.70;72.20
10245;DHT22;5167;52.164;10.530;2023-02-23T01:23:01;9.70;71.60
10245;DHT22;5167;52.164;10.530;2023-02-23T01:25:27;9.70;71.50
10245;DHT22;5167;52.164;10.530;2023-02-23T01:27:53;9.70;72.30
10245;DHT22;5167;52.164;10.530;2023-02-23T01:30:19;9.60;72.80
10245;DHT22;5167;52.164;10.530;2023-02-23T01:32:44;9.60;73.00
10245;DHT22;5167;52.164;10.530;2023-02-23T01:35:11;9.60;72.90
10245;DHT22;5167;52.164;10.530;2023-02-23T01:37:38;9.70;72.90
10245;DHT22;5167;52.164;10.530;2023-02-23T01:40:26;9.60;73.20
10245;DHT22;5167;52.164;10.530;2023-02-23T01:43:18;9.60;73.00
10245;DHT22;5167;52.164;10.530;2023-02-23T01:45:52;9.60;73.50
10245;DHT22;5167;52.164;10.530;2023-02-23T01:48:21;9.50;71.70
10245;DHT22;5167;52.164;10.530;2023-02-23T01:51:03;9.50;73.40
10245;DHT22;5167;52.164;10.530;2023-02-23T01:53:36;9.50;72.50
10245;DHT22;5167;52.164;10.530;2023-02-23T01:56:07;9.50;73.30
10245;DHT22;5167;52.164;10.530;2023-02-23T01:58:40;9.40;73.20
10245;DHT22;5167;52.164;10.530;2023-02-23T02:01:08;9.40;73.50
10245;DHT22;5167;52.164;10.530;2023-02-23T02:03:38;9.50;73.30
10245;DHT22;5167;52.164;10.530;2023-02-23T02:06:06;9.40;73.60
10245;DHT22;5167;52.164;10.530;2023-02-23T02:08:35;9.40;73.70
10245;DHT22;5167;52.164;10.530;2023-02-23T02:11:08;9.40;73.50
10245;DHT22;5167;52.164;10.530;2023-02-23T02:13:51;9.40;72.30
10245;DHT22;5167;52.164;10.530;2023-02-23T02:22:45;9.40;73.10
10245;DHT22;5167;52.164;10.530;2023-02-23T02:25:42;9.40;72.90
10245;DHT22;5167;52.164;10.530;2023-02-23T02:34:09;9.20;73.40
10245;DHT22;5167;52.164;10.530;2023-02-23T02:39:16;9.20;73.10
10245;DHT22;5167;52.164;10.530;2023-02-23T02:45:04;9.20;73.40
10245;DHT22;5167;52.164;10.530;2023-02-23T02:47:44;9.20;73.60
10245;DHT22;5167;52.164;10.530;2023-02-23T02:50:22;9.10;74.10
10245;DHT22;5167;52.164;10.530;2023-02-23T02:52:56;9.00;73.20
10245;DHT22;5167;52.164;10.530;2023-02-23T02:55:26;9.20;73.60
10245;DHT22;5167;52.164;10.530;2023-02-23T02:57:56;9.10;74.30
10245;DHT22;5167;52.164;10.530;2023-02-23T03:00:29;9.10;74.60
10245;DHT22;5167;52.164;10.530;2023-02-23T03:03:31;9.00;74.60
10245;DHT22;5167;52.164;10.530;2023-02-23T03:06:16;9.10;75.20
10245;DHT22;5167;52.164;10.530;2023-02-23T03:12:40;9.00;74.00
10245;DHT22;5167;52.164;10.530;2023-02-23T03:15:51;9.00;74.30
10245;DHT22;5167;52.164;10.530;2023-02-23T03:18:59;8.90;74.60
10245;DHT22;5167;52.164;10.530;2023-02-23T03:22:00;8.90;75.30
10245;DHT22;5167;52.164;10.530;2023-02-23T03:24:56;8.90;76.60
10245;DHT22;5167;52.164;10.530;2023-02-23T03:30:41;8.90;77.30
10245;DHT22;5167;52.164;10.530;2023-02-23T03:33:42;8.90;77.00
10245;DHT22;5167;52.164;10.530;2023-02-23T03:36:32;8.90;77.30
10245;DHT22;5167;52.164;10.530;2023-02-23T03:39:29;8.90;76.50
10245;DHT22;5167;52.164;10.530;2023-02-23T03:42:20;9.00;76.90
10245;DHT22;5167;52.164;10.530;2023-02-23T03:45:10;8.90;77.00
10245;DHT22;5167;52.164;10.530;2023-02-23T03:47:57;8.90;77.10
10245;DHT22;5167;52.164;10.530;2023-02-23T03:50:46;8.90;76.90
10245;DHT22;5167;52.164;10.530;2023-02-23T03:53:45;8.90;77.80
10245;DHT22;5167;52.164;10.530;2023-02-23T03:56:32;8.90;77.40
10245;DHT22;5167;52.164;10.530;2023-02-23T03:59:19;8.90;77.60
10245;DHT22;5167;52.164;10.530;2023-02-23T04:02:06;8.90;75.20
10245;DHT22;5167;52.164;10.530;2023-02-23T04:04:53;8.90;75.30
10245;DHT22;5167;52.164;10.530;2023-02-23T04:07:39;8.90;75.80
10245;DHT22;5167;52.164;10.530;2023-02-23T04:10:25;8.90;75.50
10245;DHT22;5167;52.164;10.530;2023-02-23T04:13:14;8.90;75.50
10245;DHT22;5167;52.164;10.530;2023-02-23T04:15:54;8.90;74.90
10245;DHT22;5167;52.164;10.530;2023-02-23T04:18:26;8.90;74.70
10245;DHT22;5167;52.164;10.530;2023-02-23T04:20:53;8.90;75.30
10245;DHT22;5167;52.164;10.530;2023-02-23T04:23:19;8.90;74.30
10245;DHT22;5167;52.164;10.530;2023-02-23T04:25:47;8.80;74.50
10245;DHT22;5167;52.164;10.530;2023-02-23T04:28:13;8.80;74.80
10245;DHT22;5167;52.164;10.530;2023-02-23T04:30:38;8.80;75.30
10245;DHT22;5167;52.164;10.530;2023-02-23T04:33:05;8.80;74.60
10245;DHT22;5167;52.164;10.530;2023-02-23T04:35:31;8.80;74.30
10245;DHT22;5167;52.164;10.530;2023-02-23T04:37:57;8.70;74.90
10245;DHT22;5167;52.164;10.530;2023-02-23T04:40:23;8.70;75.30
10245;DHT22;5167;52.164;10.530;2023-02-23T04:42:49;8.70;74.30
10245;DHT22;5167;52.164;10.530;2023-02-23T04:45:14;8.70;73.60
10245;DHT22;5167;52.164;10.530;2023-02-23T04:47:40;8.70;74.30
10245;DHT22;5167;52.164;10.530;2023-02-23T04:50:06;8.60;74.40
10245;DHT22;5167;52.164;10.530;2023-02-23T04:52:32;8.60;74.30
10245;DHT22;5167;52.164;10.530;2023-02-23T04:54:59;8.60;75.60
10245;DHT22;5167;52.164;10.530;2023-02-23T04:57:25;8.60;75.60
10245;DHT22;5167;52.164;10.530;2023-02-23T04:59:51;8.60;76.00
10245;DHT22;5167;52.164;10.530;2023-02-23T05:02:17;8.60;75.80
10245;DHT22;5167;52.164;10.530;2023-02-23T05:04:42;8.50;75.60
10245;DHT22;5167;52.164;10.530;2023-02-23T05:07:08;8.60;75.30
10245;DHT22;5167;52.164;10.530;2023-02-23T05:09:34;8.60;75.30
10245;DHT22;5167;52.164;10.530;2023-02-23T05:11:59;8.50;75.30
10245;DHT22;5167;52.164;10.530;2023-02-23T05:14:25;8.60;75.40
10245;DHT22;5167;52.164;10.530;2023-02-23T05:16:51;8.50;74.90
10245;DHT22;5167;52.164;10.530;2023-02-23T05:19:17;8.50;75.00
10245;DHT22;5167;52.164;10.530;2023-02-23T05:21:42;8.70;74.70
10245;DHT22;5167;52.164;10.530;2023-02-23T05:24:08;8.50;73.80
10245;DHT22;5167;52.164;10.530;2023-02-23T05:26:34;8.40;74.80
10245;DHT22;5167;52.164;10.530;2023-02-23T05:28:59;8.50;75.50
10245;DHT22;5167;52.164;10.530;2023-02-23T05:31:26;8.50;76.30
10245;DHT22;5167;52.164;10.530;2023-02-23T05:33:51;8.50;76.20
10245;DHT22;5167;52.164;10.530;2023-02-23T05:36:18;8.40;75.40
10245;DHT22;5167;52.164;10.530;2023-02-23T05:38:45;8.50;75.70
10245;DHT22;5167;52.164;10.530;2023-02-23T05:41:17;8.50;75.00
10245;DHT22;5167;52.164;10.530;2023-02-23T05:43:43;8.40;75.70
10245;DHT22;5167;52.164;10.530;2023-02-23T05:46:10;8.50;75.50
10245;DHT22;5167;52.164;10.530;2023-02-23T05:48:36;8.50;75.90
10245;DHT22;5167;52.164;10.530;2023-02-23T05:51:03;8.40;75.60
10245;DHT22;5167;52.164;10.530;2023-02-23T05:53:28;8.40;76.00
10245;DHT22;5167;52.164;10.530;2023-02-23T05:55:54;8.40;76.30
10245;DHT22;5167;52.164;10.530;2023-02-23T05:58:19;8.40;75.50
10245;DHT22;5167;52.164;10.530;2023-02-23T06:00:45;8.40;74.70
10245;DHT22;5167;52.164;10.530;2023-02-23T06:03:10;8.40;75.20
10245;DHT22;5167;52.164;10.530;2023-02-23T06:05:36;8.40;76.30
10245;DHT22;5167;52.164;10.530;2023-02-23T06:08:01;8.40;76.30
10245;DHT22;5167;52.164;10.530;2023-02-23T06:10:27;8.30;76.00
10245;DHT22;5167;52.164;10.530;2023-02-23T06:12:52;8.40;76.60
10245;DHT22;5167;52.164;10.530;2023-02-23T06:15:18;8.30;75.40
10245;DHT22;5167;52.164;10.530;2023-02-23T06:17:43;8.40;76.90
10245;DHT22;5167;52.164;10.530;2023-02-23T06:20:09;8.30;77.30
10245;DHT22;5167;52.164;10.530;2023-02-23T06:22:35;8.40;77.60
10245;DHT22;5167;52.164;10.530;2023-02-23T06:25:00;8.50;77.60
10245;DHT22;5167;52.164;10.530;2023-02-23T06:27:29;8.40;76.70
10245;DHT22;5167;52.164;10.530;2023-02-23T06:29:55;8.40;76.50
10245;DHT22;5167;52.164;10.530;2023-02-23T06:32:21;8.40;76.90
10245;DHT22;5167;52.164;10.530;2023-02-23T06:34:46;8.40;77.60
10245;DHT22;5167;52.164;10.530;2023-02-23T06:37:12;8.40;77.10
10245;DHT22;5167;52.164;10.530;2023-02-23T06:39:37;8.40;77.60
10245;DHT22;5167;52.164;10.530;2023-02-23T06:42:03;8.50;77.20
10245;DHT22;5167;52.164;10.530;2023-02-23T06:44:28;8.40;76.30
10245;DHT22;5167;52.164;10.530;2023-02-23T06:46:54;8.40;76.60
10245;DHT22;5167;52.164;10.530;2023-02-23T06:49:19;8.40;76.30
10245;DHT22;5167;52.164;10.530;2023-02-23T06:51:47;8.40;76.90
10245;DHT22;5167;52.164;10.530;2023-02-23T06:54:13;8.40;77.60
10245;DHT22;5167;52.164;10.530;2023-02-23T06:56:38;8.50;78.50
10245;DHT22;5167;52.164;10.530;2023-02-23T06:59:04;8.50;79.20
10245;DHT22;5167;52.164;10.530;2023-02-23T07:01:29;8.50;78.80
10245;DHT22;5167;52.164;10.530;2023-02-23T07:03:55;8.50;80.20
10245;DHT22;5167;52.164;10.530;2023-02-23T07:06:20;8.50;80.50
10245;DHT22;5167;52.164;10.530;2023-02-23T07:08:46;8.50;80.80
10245;DHT22;5167;52.164;10.530;2023-02-23T07:11:13;8.60;81.40
10245;DHT22;5167;52.164;10.530;2023-02-23T07:13:40;8.70;81.80
10245;DHT22;5167;52.164;10.530;2023-02-23T07:16:07;8.70;81.60
10245;DHT22;5167;52.164;10.530;2023-02-23T07:18:33;8.80;81.40
10245;DHT22;5167;52.164;10.530;2023-02-23T07:20:58;8.80;81.20
10245;DHT22;5167;52.164;10.530;2023-02-23T07:23:24;8.80;81.50
10245;DHT22;5167;52.164;10.530;2023-02-23T07:25:53;8.80;80.20
10245;DHT22;5167;52.164;10.530;2023-02-23T07:28:21;8.90;80.20
10245;DHT22;5167;52.164;10.530;2023-02-23T07:30:46;8.90;80.70
10245;DHT22;5167;52.164;10.530;2023-02-23T07:33:14;8.90;80.60
10245;DHT22;5167;52.164;10.530;2023-02-23T07:35:40;8.90;80.00
10245;DHT22;5167;52.164;10.530;2023-02-23T07:38:06;9.00;79.90
10245;DHT22;5167;52.164;10.530;2023-02-23T07:40:32;9.00;80.80
10245;DHT22;5167;52.164;10.530;2023-02-23T07:42:57;9.20;80.80
10245;DHT22;5167;52.164;10.530;2023-02-23T07:45:23;9.10;81.50
10245;DHT22;5167;52.164;10.530;2023-02-23T07:47:49;9.10;81.60
10245;DHT22;5167;52.164;10.530;2023-02-23T07:50:15;9.10;81.80
10245;DHT22;5167;52.164;10.530;2023-02-23T07:52:42;9.20;81.50
10245;DHT22;5167;52.164;10.530;2023-02-23T07:55:08;9.30;80.90
10245;DHT22;5167;52.164;10.530;2023-02-23T07:57:34;9.20;81.70
10245;DHT22;5167;52.164;10.530;2023-02-23T08:00:00;9.20;81.40
10245;DHT22;5167;52.164;10.530;2023-02-23T08:02:26;9.30;81.60
10245;DHT22;5167;52.164;10.530;2023-02-23T08:04:54;9.30;82.10
10245;DHT22;5167;52.164;10.530;2023-02-23T08:07:20;9.40;82.50
10245;DHT22;5167;52.164;10.530;2023-02-23T08:09:47;9.40;82.50
10245;DHT22;5167;52.164;10.530;2023-02-23T08:12:12;9.50;82.40
10245;DHT22;5167;52.164;10.530;2023-02-23T08:14:39;9.50;82.80
10245;DHT22;5167;52.164;10.530;2023-02-23T08:17:05;9.60;82.80
10245;DHT22;5167;52.164;10.530;2023-02-23T08:19:30;9.60;82.60
10245;DHT22;5167;52.164;10.530;2023-02-23T08:21:56;9.60;81.80
10245;DHT22;5167;52.164;10.530;2023-02-23T08:24:21;9.70;82.50
10245;DHT22;5167;52.164;10.530;2023-02-23T08:26:47;9.80;82.00
10245;DHT22;5167;52.164;10.530;2023-02-23T08:29:14;9.80;83.30
10245;DHT22;5167;52.164;10.530;2023-02-23T08:31:40;9.80;82.80
10245;DHT22;5167;52.164;10.530;2023-02-23T08:34:05;9.90;83.20
10245;DHT22;5167;52.164;10.530;2023-02-23T08:36:31;9.90;83.20
10245;DHT22;5167;52.164;10.530;2023-02-23T08:38:57;9.90;82.90
10245;DHT22;5167;52.164;10.530;2023-02-23T08:41:22;10.00;83.30
10245;DHT22;5167;52.164;10.530;2023-02-23T08:43:48;10.00;83.00
10245;DHT22;5167;52.164;10.530;2023-02-23T08:46:13;10.20;82.50
10245;DHT22;5167;52.164;10.530;2023-02-23T08:48:41;10.10;82.30
10245;DHT22;5167;52.164;10.530;2023-02-23T08:51:07;10.20;81.80
10245;DHT22;5167;52.164;10.530;2023-02-23T08:53:33;10.20;81.20
10245;DHT22;5167;52.164;10.530;2023-02-23T08:56:00;10.20;81.20
10245;DHT22;5167;52.164;10.530;2023-02-23T08:58:27;10.20;82.10
10245;DHT22;5167;52.164;10.530;2023-02-23T09:00:52;10.20;82.10
10245;DHT22;5167;52.164;10.530;2023-02-23T09:03:19;10.30;81.90
10245;DHT22;5167;52.164;10.530;2023-02-23T09:05:45;10.40;82.00
10245;DHT22;5167;52.164;10.530;2023-02-23T09:08:12;10.40;82.20
10245;DHT22;5167;52.164;10.530;2023-02-23T09:10:38;10.50;82.00
10245;DHT22;5167;52.164;10.530;2023-02-23T09:13:04;10.50;82.30
10245;DHT22;5167;52.164;10.530;2023-02-23T09:15:29;10.60;81.70
10245;DHT22;5167;52.164;10.530;2023-02-23T09:17:59;10.60;81.80
10245;DHT22;5167;52.164;10.530;2023-02-23T09:20:25;10.70;81.00
10245;DHT22;5167;52.164;10.530;2023-02-23T09:22:51;10.70;80.80
10245;DHT22;5167;52.164;10.530;2023-02-23T09:25:18;10.70;81.40
10245;DHT22;5167;52.164;10.530;2023-02-23T09:27:47;10.80;81.60
10245;DHT22;5167;52.164;10.530;2023-02-23T09:30:14;10.80;81.10
10245;DHT22;5167;52.164;10.530;2023-02-23T09:32:52;10.80;81.50
10245;DHT22;5167;52.164;10.530;2023-02-23T09:35:20;10.80;81.10
10245;DHT22;5167;52.164;10.530;2023-02-23T09:37:47;10.90;79.80
10245;DHT22;5167;52.164;10.530;2023-02-23T09:40:16;10.90;80.30
10245;DHT22;5167;52.164;10.530;2023-02-23T09:42:44;10.90;81.20
10245;DHT22;5167;52.164;10.530;2023-02-23T09:47:57;11.00;80.70
10245;DHT22;5167;52.164;10.530;2023-02-23T09:50:30;11.00;79.70
10245;DHT22;5167;52.164;10.530;2023-02-23T09:56:12;11.10;78.40
10245;DHT22;5167;52.164;10.530;2023-02-23T09:58:38;11.10;78.90
10245;DHT22;5167;52.164;10.530;2023-02-23T10:01:43;11.20;78.90
10245;DHT22;5167;52.164;10.530;2023-02-23T10:04:22;11.10;78.80
10245;DHT22;5167;52.164;10.530;2023-02-23T10:06:56;11.30;78.90
10245;DHT22;5167;52.164;10.530;2023-02-23T10:15:03;11.30;78.00
10245;DHT22;5167;52.164;10.530;2023-02-23T10:20:26;11.40;77.90
10245;DHT22;5167;52.164;10.530;2023-02-23T10:22:56;11.40;77.50
10245;DHT22;5167;52.164;10.530;2023-02-23T10:25:28;11.50;77.60
10245;DHT22;5167;52.164;10.530;2023-02-23T10:27:55;11.50;77.30
10245;DHT22;5167;52.164;10.530;2023-02-23T10:30:29;11.50;77.20
10245;DHT22;5167;52.164;10.530;2023-02-23T10:33:06;11.50;77.20
10245;DHT22;5167;52.164;10.530;2023-02-23T10:35:36;11.50;77.10
10245;DHT22;5167;52.164;10.530;2023-02-23T10:38:03;11.50;76.80
10245;DHT22;5167;52.164;10.530;2023-02-23T10:40:31;11.60;76.80
10245;DHT22;5167;52.164;10.530;2023-02-23T10:42:59;11.60;77.00
10245;DHT22;5167;52.164;10.530;2023-02-23T10:45:27;11.60;76.50
10245;DHT22;5167;52.164;10.530;2023-02-23T10:48:07;11.60;76.30
10245;DHT22;5167;52.164;10.530;2023-02-23T10:50:36;11.60;76.50
10245;DHT22;5167;52.164;10.530;2023-02-23T10:53:17;11.60;76.00
10245;DHT22;5167;52.164;10.530;2023-02-23T10:55:46;11.60;76.20
10245;DHT22;5167;52.164;10.530;2023-02-23T10:58:23;11.60;75.70
10245;DHT22;5167;52.164;10.530;2023-02-23T11:03:32;11.70;75.10
10245;DHT22;5167;52.164;10.530;2023-02-23T11:05:58;11.70;74.60
10245;DHT22;5167;52.164;10.530;2023-02-23T11:08:27;11.70;73.70
10245;DHT22;5167;52.164;10.530;2023-02-23T11:13:42;11.70;74.50
10245;DHT22;5167;52.164;10.530;2023-02-23T11:16:17;11.70;74.80
10245;DHT22;5167;52.164;10.530;2023-02-23T11:18:58;11.70;74.30
10245;DHT22;5167;52.164;10.530;2023-02-23T11:21:32;11.70;75.20
10245;DHT22;5167;52.164;10.530;2023-02-23T11:24:18;11.60;75.00
10245;DHT22;5167;52.164;10.530;2023-02-23T11:26:47;11.50;75.30
10245;DHT22;5167;52.164;10.530;2023-02-23T11:29:28;11.50;76.40
10245;DHT22;5167;52.164;10.530;2023-02-23T11:31:57;11.50;77.30
10245;DHT22;5167;52.164;10.530;2023-02-23T11:34:30;11.50;77.80
10245;DHT22;5167;52.164;10.530;2023-02-23T11:37:03;11.50;78.90
10245;DHT22;5167;52.164;10.530;2023-02-23T11:39:29;11.50;78.90
10245;DHT22;5167;52.164;10.530;2023-02-23T11:42:16;11.60;79.80
10245;DHT22;5167;52.164;10.530;2023-02-23T11:44:42;11.50;80.50
10245;DHT22;5167;52.164;10.530;2023-02-23T11:47:17;11.50;80.70
10245;DHT22;5167;52.164;10.530;2023-02-23T11:49:45;11.40;81.60
10245;DHT22;5167;52.164;10.530;2023-02-23T11:52:18;11.50;81.90
10245;DHT22;5167;52.164;10.530;2023-02-23T11:54:57;11.50;82.80
10245;DHT22;5167;52.164;10.530;2023-02-23T11:57:29;11.40;82.20
10245;DHT22;5167;52.164;10.530;2023-02-23T11:59:57;11.40;83.10
10245;DHT22;5167;52.164;10.530;2023-02-23T12:02:32;11.50;83.80
10245;DHT22;5167;52.164;10.530;2023-02-23T12:05:06;11.40;85.30
10245;DHT22;5167;52.164;10.530;2023-02-23T12:07:38;11.40;85.60
10245;DHT22;5167;52.164;10.530;2023-02-23T12:10:28;11.40;86.60
10245;DHT22;5167;52.164;10.530;2023-02-23T12:15:54;11.50;89.60
10245;DHT22;5167;52.164;10.530;2023-02-23T12:21:23;11.40;91.50
10245;DHT22;5167;52.164;10.530;2023-02-23T12:24:00;11.40;92.60
10245;DHT22;5167;52.164;10.530;2023-02-23T12:26:27;11.50;95.30
10245;DHT22;5167;52.164;10.530;2023-02-23T12:28:59;11.50;96.60
10245;DHT22;5167;52.164;10.530;2023-02-23T12:31:52;11.50;98.00
10245;DHT22;5167;52.164;10.530;2023-02-23T12:34:31;11.50;99.70
10245;DHT22;5167;52.164;10.530;2023-02-23T12:37:02;11.60;99.90
10245;DHT22;5167;52.164;10.530;2023-02-23T12:39:34;11.50;99.90
10245;DHT22;5167;52.164;10.530;2023-02-23T12:42:14;11.60;99.90
10245;DHT22;5167;52.164;10.530;2023-02-23T12:44:51;11.60;99.90
10245;DHT22;5167;52.164;10.530;2023-02-23T12:47:34;11.60;99.90
10245;DHT22;5167;52.164;10.530;2023-02-23T12:50:09;11.70;99.90
10245;DHT22;5167;52.164;10.530;2023-02-23T12:52:53;11.70;99.90
10245;DHT22;5167;52.164;10.530;2023-02-23T12:55:53;11.70;99.90
10245;DHT22;5167;52.164;10.530;2023-02-23T12:58:45;11.60;99.90
10245;DHT22;5167;52.164;10.530;2023-02-23T13:01:26;11.60;99.90
10245;DHT22;5167;52.164;10.530;2023-02-23T13:09:28;11.70;99.90
10245;DHT22;5167;52.164;10.530;2023-02-23T13:12:20;11.70;99.90
10245;DHT22;5167;52.164;10.530;2023-02-23T13:20:39;11.60;99.90
10245;DHT22;5167;52.164;10.530;2023-02-23T13:23:25;11.80;99.90
10245;DHT22;5167;52.164;10.530;2023-02-23T13:26:13;11.70;99.90
10245;DHT22;5167;52.164;10.530;2023-02-23T13:28:49;11.70;99.90
10245;DHT22;5167;52.164;10.530;2023-02-23T13:31:37;11.70;99.90
10245;DHT22;5167;52.164;10.530;2023-02-23T13:34:09;11.70;99.90
10245;DHT22;5167;52.164;10.530;2023-02-23T13:36:37;11.80;99.90
10245;DHT22;5167;52.164;10.530;2023-02-23T13:42:20;11.80;99.90
10245;DHT22;5167;52.164;10.530;2023-02-23T13:45:26;11.80;99.90
10245;DHT22;5167;52.164;10.530;2023-02-23T13:48:18;11.80;99.90
10245;DHT22;5167;52.164;10.530;2023-02-23T13:51:11;11.70;99.90
10245;DHT22;5167;52.164;10.530;2023-02-23T13:53:41;11.70;99.90
10245;DHT22;5167;52.164;10.530;2023-02-23T13:56:21;11.80;99.90
10245;DHT22;5167;52.164;10.530;2023-02-23T13:58:51;11.80;99.90
10245;DHT22;5167;52.164;10.530;2023-02-23T14:01:28;11.70;99.90
10245;DHT22;5167;52.164;10.530;2023-02-23T14:03:55;11.80;99.90
10245;DHT22;5167;52.164;10.530;2023-02-23T14:06:24;11.80;99.90
10245;DHT22;5167;52.164;10.530;2023-02-23T14:08:54;11.90;99.90
10245;DHT22;5167;52.164;10.530;2023-02-23T14:11:33;11.90;99.90
10245;DHT22;5167;52.164;10.530;2023-02-23T14:14:01;11.90;99.90
10245;DHT22;5167;52.164;10.530;2023-02-23T14:16:28;11.90;99.90
10245;DHT22;5167;52.164;10.530;2023-02-23T14:19:06;11.90;99.90
10245;DHT22;5167;52.164;10.530;2023-02-23T14:21:44;11.80;99.90
10245;DHT22;5167;52.164;10.530;2023-02-23T14:24:25;11.80;99.90
10245;DHT22;5167;52.164;10.530;2023-02-23T14:29:41;11.80;99.90
10245;DHT22;5167;52.164;10.530;2023-02-23T14:34:50;11.90;99.90
10245;DHT22;5167;52.164;10.530;2023-02-23T14:37:16;11.80;99.90
10245;DHT22;5167;52.164;10.530;2023-02-23T14:39:43;11.80;99.90
10245;DHT22;5167;52.164;10.530;2023-02-23T14:42:13;11.80;99.90
10245;DHT22;5167;52.164;10.530;2023-02-23T14:44:46;11.80;99.90
10245;DHT22;5167;52.164;10.530;2023-02-23T14:47:24;11.80;99.90
10245;DHT22;5167;52.164;10.530;2023-02-23T14:49:54;11.80;97.90
10245;DHT22;5167;52.164;10.530;2023-02-23T14:52:23;11.70;99.10
10245;DHT22;5167;52.164;10.530;2023-02-23T14:54:50;11.70;96.90
10245;DHT22;5167;52.164;10.530;2023-02-23T14:57:17;11.60;97.30
10245;DHT22;5167;52.164;10.530;2023-02-23T14:59:43;11.70;97.60
10245;DHT22;5167;52.164;10.530;2023-02-23T15:02:16;11.70;97.50
10245;DHT22;5167;52.164;10.530;2023-02-23T15:04:42;11.90;98.60
10245;DHT22;5167;52.164;10.530;2023-02-23T15:07:21;11.70;97.50
10245;DHT22;5167;52.164;10.530;2023-02-23T15:09:54;11.60;97.00
10245;DHT22;5167;52.164;10.530;2023-02-23T15:12:23;11.60;96.20
10245;DHT22;5167;52.164;10.530;2023-02-23T15:14:59;11.60;95.70
10245;DHT22;5167;52.164;10.530;2023-02-23T15:17:27;11.50;95.30
10245;DHT22;5167;52.164;10.530;2023-02-23T15:20:09;11.50;95.90
10245;DHT22;5167;52.164;10.530;2023-02-23T15:22:37;11.60;94.70
10245;DHT22;5167;52.164;10.530;2023-02-23T15:27:40;11.50;94.90
10245;DHT22;5167;52.164;10.530;2023-02-23T15:30:30;11.50;94.70
10245;DHT22;5167;52.164;10.530;2023-02-23T15:33:00;11.40;94.30
10245;DHT22;5167;52.164;10.530;2023-02-23T15:35:27;11.40;94.50
10245;DHT22;5167;52.164;10.530;2023-02-23T15:37:53;11.40;94.40
10245;DHT22;5167;52.164;10.530;2023-02-23T15:40:21;11.30;95.00
10245;DHT22;5167;52.164;10.530;2023-02-23T15:42:51;11.30;93.90
10245;DHT22;5167;52.164;10.530;2023-02-23T15:45:37;11.30;94.10
10245;DHT22;5167;52.164;10.530;2023-02-23T15:48:17;11.20;93.10
10245;DHT22;5167;52.164;10.530;2023-02-23T15:50:47;11.20;93.50
10245;DHT22;5167;52.164;10.530;2023-02-23T15:55:54;11.20;94.30
10245;DHT22;5167;52.164;10.530;2023-02-23T15:58:25;11.20;95.40
10245;DHT22;5167;52.164;10.530;2023-02-23T16:01:10;11.20;94.00
10245;DHT22;5167;52.164;10.530;2023-02-23T16:03:38;11.10;95.70
10245;DHT22;5167;52.164;10.530;2023-02-23T16:06:26;11.20;95.50
10245;DHT22;5167;52.164;10.530;2023-02-23T16:08:57;11.10;95.30
10245;DHT22;5167;52.164;10.530;2023-02-23T16:11:23;11.10;94.70
10245;DHT22;5167;52.164;10.530;2023-02-23T16:13:50;11.20;93.80
10245;DHT22;5167;52.164;10.530;2023-02-23T16:16:17;11.10;94.10
10245;DHT22;5167;52.164;10.530;2023-02-23T16:18:54;11.10;94.30
10245;DHT22;5167;52.164;10.530;2023-02-23T16:21:27;11.10;93.60
10245;DHT22;5167;52.164;10.530;2023-02-23T16:23:55;11.00;94.20
10245;DHT22;5167;52.164;10.530;2023-02-23T16:26:34;11.00;94.00
10245;DHT22;5167;52.164;10.530;2023-02-23T16:29:02;11.10;94.50
10245;DHT22;5167;52.164;10.530;2023-02-23T16:31:46;11.00;94.20
10245;DHT22;5167;52.164;10.530;2023-02-23T16:35:08;11.00;94.20
10245;DHT22;5167;52.164;10.530;2023-02-23T16:37:16;11.00;94.80
10245;DHT22;5167;52.164;10.530;2023-02-23T16:39:43;11.00;96.20
10245;DHT22;5167;52.164;10.530;2023-02-23T16:42:21;11.00;96.20
10245;DHT22;5167;52.164;10.530;2023-02-23T16:44:47;11.00;94.50
10245;DHT22;5167;52.164;10.530;2023-02-23T16:49:48;10.90;95.00
10245;DHT22;5167;52.164;10.530;2023-02-23T16:52:20;11.00;95.50
10245;DHT22;5167;52.164;10.530;2023-02-23T16:54:50;11.00;94.90
10245;DHT22;5167;52.164;10.530;2023-02-23T16:57:23;10.90;95.70
10245;DHT22;5167;52.164;10.530;2023-02-23T16:59:50;10.90;96.00
10245;DHT22;5167;52.164;10.530;2023-02-23T17:02:18;10.90;96.20
10245;DHT22;5167;52.164;10.530;2023-02-23T17:04:44;10.90;96.20
10245;DHT22;5167;52.164;10.530;2023-02-23T17:07:18;10.80;96.30
10245;DHT22;5167;52.164;10.530;2023-02-23T17:09:45;10.80;95.50
10245;DHT22;5167;52.164;10.530;2023-02-23T17:12:13;10.90;95.90
10245;DHT22;5167;52.164;10.530;2023-02-23T17:14:42;10.90;96.50
10245;DHT22;5167;52.164;10.530;2023-02-23T17:17:15;10.80;95.20
10245;DHT22;5167;52.164;10.530;2023-02-23T17:19:41;10.90;95.80
10245;DHT22;5167;52.164;10.530;2023-02-23T17:22:08;10.90;96.30
10245;DHT22;5167;52.164;10.530;2023-02-23T17:24:33;10.80;97.20